Saline, MI (48176)

2:23 AM EDT on September 05, 2015 (GMT -0400)
Ringel Farms | | Change Station
CLOSE
Current Station
Personal Weather Station
Location: Saline, MI
Elevation: 869 ft
Nearby Weather Stations

Elev 869 ft 42.18 °N, 83.85 °W | Updated 4 minutes ago

Fog
Fog
68.1 °F
Feels Like 68.1 °F
N
0.0
Wind Variable Wind from SSE
Gusts 2.0 mph

Today
High -- | Low -- °F
--% Chance of Precip.
Yesterday
High -- | Low -- °F
Precip. -- in
7:04 AM 8:02 PM
Waning Gibbous, 52% visible
Pressure 30.06 in
Visibility 0.2 miles
Clouds
Dew Point 67 °F
Humidity 96%
Rainfall 0.00 in
Snow Depth Not available.
UV Not available.
Pollen 6.60 out of 12
Air Quality Not available.
Flu Activity Not available.
METAR KARB 050553Z AUTO 26003KT 1/4SM FG VV001 20/19 A3008 RMK AO2 SLP179 T02000194 10244 20178 53001
Pressure 30.06 in
Visibility 0.2 miles
Clouds
Dew Point 67 °F
Humidity 96%
Rainfall 0.00 in
Snow Depth Not available.
UV Not available.
Pollen 6.60 out of 12
Air Quality Not available.
Flu Activity Not available.
METAR KARB 050553Z AUTO 26003KT 1/4SM FG VV001 20/19 A3008 RMK AO2 SLP179 T02000194 10244 20178 53001

10-Day Weather Forecast

×

Almanac

Astronomy

Sep. 05, 2015 Rise Set
Actual Time
Civil Twilight
Nautical Twilight
Astronomical Twilight
Moon
Length of Visible Light
Length of Day
Tomorrow will be .
, % of the Moon is Illuminated

Today's Extremes

State Highs State Lows

Community

WunderPhotos

Upload Photos

1,852,430 photos uploaded!

WunderBlogs® & News

Nearby

Air Quality

  Air Quality AQ Index Pollutant
Not available.

Snow Depth

Station Depth Elevation

Earthquake Activity

City Distance Mag. Time & Date
Minimum magnitude displayed is 2.5.

Coastal Water Temperatures

Place Temperature

Stations

Nearby Weather Stations

Station Location Temp. Windchill Dew Point Humidity Wind Precip. Elev Updated Type